Time;durP1;ratioP1;P1;durP2;ratioP2;P2;SDS_P1;SDS_P2;PMS_P1;PMS_P2;Temp;Humidity;BMP_temperature;BMP_pressure;BME280_temperature;BME280_humidity;BME280_pressure;Samples;Min_cycle;Max_cycle;Signal;HPM_P1;HPM_P2
2021/11/16 00:01:20;;;;;;;56.13;37.60;;;;;;;;;;5036448;28;20246;-74
2021/11/16 00:03:47;;;;;;;58.50;37.73;;;;;;;;;;5035065;28;20586;-73
2021/11/16 00:06:14;;;;;;;57.67;38.07;;;;;;;;;;5036765;28;20281;-73
2021/11/16 00:08:40;;;;;;;62.03;38.77;;;;;;;;;;5037116;28;20674;-73
2021/11/16 00:11:07;;;;;;;59.97;38.30;;;;;;;;;;5036958;28;20218;-73
2021/11/16 00:13:33;;;;;;;59.03;38.67;;;;;;;;;;5037572;28;20211;-73
2021/11/16 00:16:00;;;;;;;60.67;38.60;;;;;;;;;;5039641;28;20220;-74
2021/11/16 00:18:29;;;;;;;60.93;39.13;;;;;;;;;;5039877;28;20206;-74
2021/11/16 00:21:02;;;;;;;60.40;38.93;;;;;;;;;;5039877;28;20219;-73
2021/11/16 00:23:34;;;;;;;61.13;38.97;;;;;;;;;;5039330;28;20312;-73
2021/11/16 00:26:03;;;;;;;57.13;37.97;;;;;;;;;;5041729;28;20254;-73
2021/11/16 00:28:29;;;;;;;57.90;36.83;;;;;;;;;;5036859;28;20208;-73
2021/11/16 00:30:56;;;;;;;55.80;36.67;;;;;;;;;;5036524;28;20724;-73
2021/11/16 00:33:26;;;;;;;58.27;38.07;;;;;;;;;;5036359;28;20216;-73
2021/11/16 00:35:54;;;;;;;59.53;38.47;;;;;;;;;;5039822;28;20247;-73
2021/11/16 00:38:22;;;;;;;63.90;39.80;;;;;;;;;;5040552;28;20211;-73
2021/11/16 00:40:49;;;;;;;58.13;37.93;;;;;;;;;;5038232;28;20211;-73
2021/11/16 00:43:16;;;;;;;62.20;38.73;;;;;;;;;;5040420;28;20228;-73
2021/11/16 00:45:44;;;;;;;60.90;39.43;;;;;;;;;;5041026;28;20227;-74
2021/11/16 00:48:12;;;;;;;59.30;40.07;;;;;;;;;;5041331;28;20644;-73
2021/11/16 00:50:41;;;;;;;61.23;39.37;;;;;;;;;;5039946;28;20611;-73
2021/11/16 00:53:08;;;;;;;60.27;38.63;;;;;;;;;;5043238;28;20194;-74
2021/11/16 00:55:36;;;;;;;57.30;37.50;;;;;;;;;;5040500;28;20662;-73
2021/11/16 00:58:03;;;;;;;62.37;39.30;;;;;;;;;;5040795;28;20207;-73
2021/11/16 01:00:31;;;;;;;58.37;37.73;;;;;;;;;;5039027;28;20219;-73
2021/11/16 01:02:58;;;;;;;58.30;39.70;;;;;;;;;;5038211;28;20290;-73
2021/11/16 01:05:25;;;;;;;58.60;39.23;;;;;;;;;;5037686;28;20216;-73
2021/11/16 01:07:51;;;;;;;59.30;37.97;;;;;;;;;;5038459;28;20693;-74
2021/11/16 01:10:20;;;;;;;57.10;38.30;;;;;;;;;;5040529;28;20215;-73
2021/11/16 01:12:48;;;;;;;57.40;37.53;;;;;;;;;;5038207;28;20215;-73
2021/11/16 01:15:16;;;;;;;58.73;39.07;;;;;;;;;;5037104;28;20666;-73
2021/11/16 01:17:43;;;;;;;62.33;38.20;;;;;;;;;;5043120;28;20238;-73
2021/11/16 01:20:11;;;;;;;60.33;38.83;;;;;;;;;;5041531;28;20285;-73
2021/11/16 01:22:38;;;;;;;57.77;37.13;;;;;;;;;;5041077;28;20288;-74
2021/11/16 01:25:07;;;;;;;57.60;38.40;;;;;;;;;;5039200;28;20655;-74
2021/11/16 01:27:35;;;;;;;64.47;40.83;;;;;;;;;;5042210;28;20211;-73
2021/11/16 01:30:04;;;;;;;60.07;38.03;;;;;;;;;;5037769;28;20230;-73
2021/11/16 01:32:35;;;;;;;61.53;39.83;;;;;;;;;;5040491;28;20545;-73
2021/11/16 01:35:02;;;;;;;64.27;39.83;;;;;;;;;;5037745;28;20214;-73
2021/11/16 01:37:29;;;;;;;61.10;37.30;;;;;;;;;;5036825;28;20316;-73
2021/11/16 01:39:56;;;;;;;59.20;35.03;;;;;;;;;;5039774;28;21072;-73
2021/11/16 01:42:22;;;;;;;63.17;38.00;;;;;;;;;;5037932;28;20254;-73
2021/11/16 01:44:50;;;;;;;62.87;39.20;;;;;;;;;;5038943;28;20573;-73
2021/11/16 01:47:18;;;;;;;59.00;36.00;;;;;;;;;;5032757;28;20211;-74
2021/11/16 01:49:45;;;;;;;62.40;37.63;;;;;;;;;;5031806;28;20215;-74
2021/11/16 01:52:12;;;;;;;61.40;34.37;;;;;;;;;;5031280;28;20250;-75
2021/11/16 01:54:38;;;;;;;65.47;38.27;;;;;;;;;;5032746;28;20545;-74
2021/11/16 01:57:05;;;;;;;62.80;38.50;;;;;;;;;;5033664;28;20289;-74
2021/11/16 01:59:32;;;;;;;64.17;38.87;;;;;;;;;;5031739;28;20685;-74
2021/11/16 02:02:01;;;;;;;62.30;37.40;;;;;;;;;;5033351;28;20264;-74
2021/11/16 02:04:28;;;;;;;63.90;37.87;;;;;;;;;;5032403;28;20788;-74
2021/11/16 02:06:55;;;;;;;59.20;34.90;;;;;;;;;;5032197;28;20326;-74
2021/11/16 02:09:21;;;;;;;64.43;36.90;;;;;;;;;;5031877;28;20601;-73
2021/11/16 02:11:47;;;;;;;63.77;36.20;;;;;;;;;;5032250;28;20207;-74
2021/11/16 02:14:16;;;;;;;58.57;37.20;;;;;;;;;;5032610;28;20273;-74
2021/11/16 02:16:44;;;;;;;62.63;37.20;;;;;;;;;;5032646;28;20265;-74
2021/11/16 02:19:12;;;;;;;63.07;36.83;;;;;;;;;;5032588;28;20249;-73
2021/11/16 02:21:41;;;;;;;63.83;36.10;;;;;;;;;;5028882;28;21111;-74
2021/11/16 02:24:08;;;;;;;66.53;35.93;;;;;;;;;;5032304;28;21298;-73
2021/11/16 02:26:36;;;;;;;60.60;36.47;;;;;;;;;;5032136;28;20212;-74
2021/11/16 02:29:04;;;;;;;61.20;35.63;;;;;;;;;;5031634;28;20289;-74
2021/11/16 02:31:31;;;;;;;61.00;35.83;;;;;;;;;;5030527;28;20211;-73
2021/11/16 02:33:58;;;;;;;64.97;37.20;;;;;;;;;;5032378;28;20694;-74
2021/11/16 02:36:29;;;;;;;59.70;35.07;;;;;;;;;;5031088;28;20280;-73
2021/11/16 02:38:57;;;;;;;62.83;35.70;;;;;;;;;;5031413;28;20210;-73
2021/11/16 02:41:29;;;;;;;66.50;36.17;;;;;;;;;;5032323;28;20204;-74
2021/11/16 02:43:56;;;;;;;62.70;36.87;;;;;;;;;;5030024;28;20694;-73
2021/11/16 02:46:22;;;;;;;63.97;36.90;;;;;;;;;;5030775;28;20261;-74
2021/11/16 02:48:49;;;;;;;65.70;37.77;;;;;;;;;;5031449;28;20259;-74
2021/11/16 02:51:15;;;;;;;63.30;36.30;;;;;;;;;;5031509;28;20254;-74
2021/11/16 02:53:43;;;;;;;60.87;37.07;;;;;;;;;;5030673;28;20255;-74
2021/11/16 02:56:10;;;;;;;62.47;35.60;;;;;;;;;;5032803;28;20218;-74
2021/11/16 02:58:37;;;;;;;64.17;37.33;;;;;;;;;;5031874;28;20628;-74
2021/11/16 03:01:08;;;;;;;61.07;36.43;;;;;;;;;;5030930;28;20726;-74
2021/11/16 03:03:37;;;;;;;66.63;39.50;;;;;;;;;;5031406;28;20236;-73
2021/11/16 03:06:04;;;;;;;66.20;38.10;;;;;;;;;;5031626;28;20272;-74
2021/11/16 03:08:30;;;;;;;65.63;38.93;;;;;;;;;;5030737;28;20268;-74
2021/11/16 03:10:59;;;;;;;71.27;40.10;;;;;;;;;;5033343;28;20555;-73
2021/11/16 03:13:32;;;;;;;65.40;39.57;;;;;;;;;;5031634;28;20242;-74
2021/11/16 03:15:58;;;;;;;65.37;38.53;;;;;;;;;;5030462;28;20265;-74
2021/11/16 03:18:25;;;;;;;68.10;38.77;;;;;;;;;;5031460;28;20215;-73
2021/11/16 03:20:52;;;;;;;65.60;38.10;;;;;;;;;;5032995;28;20619;-74
2021/11/16 03:23:21;;;;;;;65.33;38.67;;;;;;;;;;5030299;28;20220;-73
2021/11/16 03:25:51;;;;;;;68.10;37.40;;;;;;;;;;5032064;28;20822;-74
2021/11/16 03:28:19;;;;;;;65.70;39.40;;;;;;;;;;5032700;28;20265;-74
2021/11/16 03:30:50;;;;;;;68.43;38.47;;;;;;;;;;5032356;28;20211;-73
2021/11/16 03:33:17;;;;;;;67.27;39.13;;;;;;;;;;5030078;28;20207;-73
2021/11/16 03:35:44;;;;;;;66.97;38.57;;;;;;;;;;5029733;28;20929;-73
2021/11/16 03:38:11;;;;;;;64.63;39.50;;;;;;;;;;5030535;28;20264;-74
2021/11/16 03:40:40;;;;;;;67.57;38.93;;;;;;;;;;5031691;28;20310;-74
2021/11/16 03:43:09;;;;;;;70.30;40.73;;;;;;;;;;5031287;28;20211;-74
2021/11/16 03:45:36;;;;;;;64.93;37.87;;;;;;;;;;5034977;28;20262;-73
2021/11/16 03:48:06;;;;;;;59.60;36.20;;;;;;;;;;5034731;28;20214;-73
2021/11/16 03:50:33;;;;;;;61.57;37.63;;;;;;;;;;5034050;28;20223;-74
2021/11/16 03:53:00;;;;;;;67.57;38.53;;;;;;;;;;5034698;28;20219;-74
2021/11/16 03:55:29;;;;;;;63.93;37.83;;;;;;;;;;5034814;28;20272;-73
2021/11/16 03:57:58;;;;;;;68.77;39.90;;;;;;;;;;5034371;28;20200;-73
2021/11/16 04:00:27;;;;;;;61.97;36.03;;;;;;;;;;5034971;28;20318;-74
2021/11/16 04:02:53;;;;;;;62.23;36.57;;;;;;;;;;5034495;28;20272;-74
2021/11/16 04:05:23;;;;;;;66.90;36.77;;;;;;;;;;5032905;28;20219;-74
2021/11/16 04:07:50;;;;;;;64.40;36.33;;;;;;;;;;5035734;28;20815;-74
2021/11/16 04:10:17;;;;;;;62.53;35.87;;;;;;;;;;5034979;28;20222;-74
2021/11/16 04:12:44;;;;;;;65.27;37.10;;;;;;;;;;5032583;28;20261;-74
2021/11/16 04:15:13;;;;;;;59.47;35.43;;;;;;;;;;5035545;28;20574;-74
2021/11/16 04:17:43;;;;;;;65.67;37.03;;;;;;;;;;5033328;28;20316;-74
2021/11/16 04:20:15;;;;;;;64.97;35.73;;;;;;;;;;5033123;28;20216;-74
2021/11/16 04:22:43;;;;;;;63.23;35.73;;;;;;;;;;5033674;28;20705;-74
2021/11/16 04:25:09;;;;;;;64.57;35.43;;;;;;;;;;5034140;28;20276;-74
2021/11/16 04:27:36;;;;;;;60.97;35.13;;;;;;;;;;5036442;28;20261;-74
2021/11/16 04:30:04;;;;;;;64.90;35.60;;;;;;;;;;5033106;28;20233;-74
2021/11/16 04:32:30;;;;;;;62.37;36.60;;;;;;;;;;5034916;28;20736;-74
2021/11/16 04:34:57;;;;;;;64.43;36.43;;;;;;;;;;5031758;28;20252;-74
2021/11/16 04:37:24;;;;;;;66.03;37.27;;;;;;;;;;5034903;28;20636;-73
2021/11/16 04:39:51;;;;;;;61.17;34.47;;;;;;;;;;5033065;28;20721;-74
2021/11/16 04:42:18;;;;;;;63.23;36.57;;;;;;;;;;5032505;28;20215;-74
2021/11/16 04:44:45;;;;;;;55.77;33.20;;;;;;;;;;5030897;28;20333;-75
2021/11/16 04:47:15;;;;;;;62.73;34.93;;;;;;;;;;5032727;28;20219;-74
2021/11/16 04:49:44;;;;;;;59.00;32.07;;;;;;;;;;5034334;28;20795;-74
2021/11/16 04:52:18;;;;;;;64.17;33.47;;;;;;;;;;5033143;28;20815;-74
2021/11/16 05:02:57;;;;;;;61.93;35.37;;;;;;;;;;5032223;28;20204;-73
2021/11/16 05:05:23;;;;;;;62.20;34.10;;;;;;;;;;5033450;28;20285;-74
2021/11/16 05:07:53;;;;;;;65.17;36.20;;;;;;;;;;5032201;28;20662;-73
2021/11/16 05:10:20;;;;;;;63.20;34.93;;;;;;;;;;5033493;28;20667;-75
2021/11/16 05:12:47;;;;;;;62.57;34.80;;;;;;;;;;5035246;28;20585;-74
2021/11/16 05:15:17;;;;;;;65.73;34.67;;;;;;;;;;5032117;28;20771;-75
2021/11/16 05:17:46;;;;;;;66.27;34.23;;;;;;;;;;5033246;28;20207;-74
2021/11/16 05:20:13;;;;;;;63.33;34.03;;;;;;;;;;5034245;28;20302;-74
2021/11/16 05:22:41;;;;;;;66.07;35.10;;;;;;;;;;5032920;28;20265;-74
2021/11/16 05:25:08;;;;;;;61.47;34.23;;;;;;;;;;5032444;28;20629;-74
2021/11/16 05:27:35;;;;;;;57.13;33.43;;;;;;;;;;5034520;28;20225;-74
2021/11/16 05:30:06;;;;;;;63.30;33.80;;;;;;;;;;5032704;28;20255;-75
2021/11/16 05:32:33;;;;;;;65.45;44.45;;;;;;;;;;5032604;28;20436;-77
2021/11/16 05:34:59;;;;;;;66.37;38.47;;;;;;;;;;5034077;28;20523;-77
2021/11/16 05:37:26;;;;;;;63.67;35.83;;;;;;;;;;5033369;28;20227;-78
2021/11/16 05:39:52;;;;;;;68.00;35.97;;;;;;;;;;5033800;28;20254;-77
2021/11/16 05:42:21;;;;;;;61.20;36.57;;;;;;;;;;5030871;28;20212;-77
2021/11/16 05:44:48;;;;;;;63.87;35.63;;;;;;;;;;5032575;28;20241;-77
2021/11/16 05:47:15;;;;;;;64.70;36.43;;;;;;;;;;5032516;28;20254;-77
2021/11/16 05:49:42;;;;;;;65.53;36.33;;;;;;;;;;5033993;28;20835;-78
2021/11/16 05:52:08;;;;;;;65.37;34.63;;;;;;;;;;5031801;28;20234;-77
2021/11/16 05:54:35;;;;;;;65.90;34.40;;;;;;;;;;5031788;28;20693;-77
2021/11/16 05:57:03;;;;;;;61.23;35.07;;;;;;;;;;5031165;28;20219;-77
2021/11/16 05:59:33;;;;;;;65.17;35.40;;;;;;;;;;5031513;28;20644;-77
2021/11/16 06:02:02;;;;;;;64.97;35.50;;;;;;;;;;5032446;28;20219;-77
2021/11/16 06:04:30;;;;;;;64.47;34.77;;;;;;;;;;5030576;28;20299;-77
2021/11/16 06:06:56;;;;;;;61.37;34.63;;;;;;;;;;5031791;28;20284;-77
2021/11/16 06:09:22;;;;;;;60.63;34.30;;;;;;;;;;5030936;28;20223;-77
2021/11/16 06:11:49;;;;;;;67.10;33.37;;;;;;;;;;5031433;28;20733;-78
2021/11/16 06:14:16;;;;;;;62.93;34.13;;;;;;;;;;5032894;28;21124;-77
2021/11/16 06:16:42;;;;;;;64.73;34.10;;;;;;;;;;5033302;28;20642;-78
2021/11/16 06:19:09;;;;;;;63.63;34.67;;;;;;;;;;5031291;28;20238;-77
2021/11/16 06:21:37;;;;;;;64.10;34.83;;;;;;;;;;5031768;28;20250;-77
2021/11/16 06:24:04;;;;;;;65.63;36.20;;;;;;;;;;5033271;28;20846;-77
2021/11/16 06:26:33;;;;;;;59.43;33.30;;;;;;;;;;5031691;28;20269;-77
2021/11/16 06:29:00;;;;;;;65.27;34.93;;;;;;;;;;5031951;28;20258;-77
2021/11/16 06:31:27;;;;;;;59.17;33.00;;;;;;;;;;5032058;28;20208;-77
2021/11/16 06:33:58;;;;;;;59.37;33.93;;;;;;;;;;5030166;28;20622;-76
2021/11/16 06:36:28;;;;;;;65.20;35.27;;;;;;;;;;5032276;28;20234;-77
2021/11/16 06:38:57;;;;;;;61.27;35.70;;;;;;;;;;5031945;28;20773;-77
2021/11/16 06:41:23;;;;;;;63.40;34.93;;;;;;;;;;5031107;28;20546;-77
2021/11/16 06:43:50;;;;;;;60.03;32.53;;;;;;;;;;5031940;28;20285;-77
2021/11/16 06:46:16;;;;;;;64.43;35.20;;;;;;;;;;5031792;28;20752;-77
2021/11/16 06:48:43;;;;;;;66.00;33.87;;;;;;;;;;5030536;28;20211;-77
2021/11/16 06:51:09;;;;;;;61.20;35.07;;;;;;;;;;5028949;28;20250;-77
2021/11/16 06:53:37;;;;;;;61.60;34.17;;;;;;;;;;5032319;28;20207;-77
2021/11/16 06:56:06;;;;;;;62.13;33.60;;;;;;;;;;5031706;28;20215;-77
2021/11/16 06:58:35;;;;;;;60.87;33.50;;;;;;;;;;5031310;28;20207;-77
2021/11/16 07:01:03;;;;;;;64.17;34.83;;;;;;;;;;5030696;28;20823;-76
2021/11/16 07:03:29;;;;;;;64.37;35.53;;;;;;;;;;5033355;28;20659;-77
2021/11/16 07:05:58;;;;;;;67.60;36.87;;;;;;;;;;5029750;28;20235;-77
2021/11/16 07:08:32;;;;;;;67.43;37.00;;;;;;;;;;5031227;28;20210;-77
2021/11/16 07:11:11;;;;;;;68.67;36.87;;;;;;;;;;5027576;28;20567;-77
2021/11/16 07:13:52;;;;;;;63.50;36.40;;;;;;;;;;5029143;28;20236;-78
2021/11/16 07:16:19;;;;;;;69.47;37.40;;;;;;;;;;5029966;28;20211;-76
2021/11/16 07:18:49;;;;;;;67.73;36.33;;;;;;;;;;5030145;28;20780;-78
2021/11/16 07:21:16;;;;;;;65.50;34.97;;;;;;;;;;5032587;28;20254;-78
2021/11/16 07:23:42;;;;;;;63.17;34.17;;;;;;;;;;5033786;28;20293;-77
2021/11/16 07:26:14;;;;;;;63.63;32.83;;;;;;;;;;5032015;28;20592;-77
2021/11/16 07:28:46;;;;;;;61.90;33.13;;;;;;;;;;5028613;28;20290;-77
2021/11/16 07:31:16;;;;;;;65.20;35.63;;;;;;;;;;5032102;28;20203;-77
2021/11/16 07:33:43;;;;;;;64.67;34.03;;;;;;;;;;5032011;28;20211;-77
2021/11/16 07:36:11;;;;;;;60.87;33.43;;;;;;;;;;5030410;28;20223;-77
2021/11/16 07:38:37;;;;;;;62.80;34.87;;;;;;;;;;5032298;28;20222;-77
2021/11/16 07:41:04;;;;;;;65.97;35.43;;;;;;;;;;5033114;28;20211;-77
2021/11/16 07:43:32;;;;;;;61.17;34.90;;;;;;;;;;5031700;28;20218;-77
2021/11/16 07:45:59;;;;;;;65.23;36.57;;;;;;;;;;5033513;28;21217;-78
2021/11/16 07:48:28;;;;;;;61.47;34.60;;;;;;;;;;5033495;28;20847;-77
2021/11/16 07:50:56;;;;;;;64.10;34.00;;;;;;;;;;5035096;28;20241;-77
2021/11/16 07:53:28;;;;;;;64.50;35.20;;;;;;;;;;5033049;28;20268;-78
2021/11/16 07:56:02;;;;;;;62.63;34.03;;;;;;;;;;5033754;28;20626;-78
2021/11/16 07:58:31;;;;;;;63.70;35.90;;;;;;;;;;5034523;28;20203;-77
2021/11/16 08:01:02;;;;;;;61.50;35.50;;;;;;;;;;5034967;28;20208;-77
2021/11/16 08:03:38;;;;;;;66.90;35.30;;;;;;;;;;5032816;28;20649;-77
2021/11/16 08:06:11;;;;;;;63.87;36.23;;;;;;;;;;5033096;28;20266;-77
2021/11/16 08:08:51;;;;;;;70.87;37.87;;;;;;;;;;5033337;28;20215;-77
2021/11/16 08:11:22;;;;;;;67.20;36.40;;;;;;;;;;5035705;28;20648;-77
2021/11/16 08:13:55;;;;;;;66.20;36.10;;;;;;;;;;5033224;28;20227;-77
2021/11/16 08:16:24;;;;;;;67.57;36.90;;;;;;;;;;5033957;28;20204;-77
2021/11/16 08:18:55;;;;;;;68.23;35.93;;;;;;;;;;5033338;28;20219;-78
2021/11/16 08:21:23;;;;;;;69.07;36.93;;;;;;;;;;5032107;28;20241;-77
2021/11/16 08:23:53;;;;;;;68.13;35.60;;;;;;;;;;5032998;28;20877;-77
2021/11/16 08:26:21;;;;;;;64.90;35.40;;;;;;;;;;5032385;28;20231;-78
2021/11/16 08:28:49;;;;;;;65.43;36.93;;;;;;;;;;5032221;28;20223;-78
2021/11/16 08:31:17;;;;;;;71.17;36.47;;;;;;;;;;5030294;28;20252;-77
2021/11/16 08:33:45;;;;;;;65.93;36.50;;;;;;;;;;5031859;28;20211;-77
2021/11/16 08:36:12;;;;;;;72.50;37.20;;;;;;;;;;5032128;28;20940;-78
2021/11/16 08:38:40;;;;;;;69.90;36.13;;;;;;;;;;5032650;28;20303;-78
2021/11/16 08:41:07;;;;;;;68.67;37.17;;;;;;;;;;5031524;28;20230;-77
2021/11/16 08:43:38;;;;;;;69.43;37.37;;;;;;;;;;5032186;28;20206;-77
2021/11/16 08:46:06;;;;;;;70.63;36.87;;;;;;;;;;5033677;28;20292;-78
2021/11/16 08:48:35;;;;;;;68.43;35.80;;;;;;;;;;5033266;28;20210;-77
2021/11/16 08:51:08;;;;;;;65.30;34.30;;;;;;;;;;5031407;28;20722;-77
2021/11/16 08:53:38;;;;;;;64.00;34.30;;;;;;;;;;5032584;28;20207;-77
2021/11/16 08:56:07;;;;;;;66.37;35.27;;;;;;;;;;5034948;28;20453;-77
2021/11/16 08:58:34;;;;;;;67.43;34.90;;;;;;;;;;5031691;28;20297;-76
2021/11/16 09:01:03;;;;;;;67.40;36.03;;;;;;;;;;5032164;28;20222;-77
2021/11/16 09:03:32;;;;;;;66.53;35.23;;;;;;;;;;5032140;28;20223;-77
2021/11/16 09:06:01;;;;;;;69.50;34.63;;;;;;;;;;5032080;28;21076;-77
2021/11/16 09:08:32;;;;;;;65.73;33.60;;;;;;;;;;5031007;28;20215;-76
2021/11/16 09:11:01;;;;;;;65.83;33.53;;;;;;;;;;5032759;28;20813;-77
2021/11/16 09:13:30;;;;;;;62.57;33.17;;;;;;;;;;5030754;28;20199;-77
2021/11/16 09:15:58;;;;;;;69.03;34.67;;;;;;;;;;5032417;28;20221;-76
2021/11/16 09:18:28;;;;;;;67.70;34.67;;;;;;;;;;5031414;28;20770;-77
2021/11/16 09:20:58;;;;;;;65.77;34.20;;;;;;;;;;5032463;28;20311;-77
2021/11/16 09:23:28;;;;;;;68.20;35.20;;;;;;;;;;5029829;28;20223;-77
2021/11/16 09:26:06;;;;;;;70.20;35.07;;;;;;;;;;5032947;28;20308;-79
2021/11/16 09:28:36;;;;;;;70.50;33.87;;;;;;;;;;5035288;28;20211;-78
2021/11/16 09:31:17;;;;;;;64.87;34.40;;;;;;;;;;5032797;28;20544;-79
2021/11/16 09:33:44;;;;;;;68.63;34.40;;;;;;;;;;5034495;28;20332;-79
2021/11/16 09:36:11;;;;;;;67.97;35.07;;;;;;;;;;5031763;28;20234;-77
2021/11/16 09:38:46;;;;;;;68.17;36.37;;;;;;;;;;5031476;28;20611;-77
2021/11/16 09:41:21;;;;;;;65.60;34.20;;;;;;;;;;5030415;28;20773;-77
2021/11/16 09:43:56;;;;;;;70.00;35.37;;;;;;;;;;5031860;28;20685;-77
2021/11/16 09:46:22;;;;;;;69.33;34.90;;;;;;;;;;5031350;28;20218;-77
2021/11/16 09:48:57;;;;;;;67.40;35.60;;;;;;;;;;5029744;28;20269;-77
2021/11/16 09:51:23;;;;;;;63.23;33.40;;;;;;;;;;5031809;28;20246;-77
2021/11/16 09:54:01;;;;;;;69.27;34.53;;;;;;;;;;5031888;28;20210;-79
2021/11/16 09:56:30;;;;;;;63.40;32.37;;;;;;;;;;5033376;28;20211;-79
2021/11/16 09:58:57;;;;;;;65.67;34.33;;;;;;;;;;5034917;28;20230;-79
2021/11/16 10:01:27;;;;;;;64.27;35.10;;;;;;;;;;5036129;28;20215;-79
2021/11/16 10:04:12;;;;;;;63.57;35.17;;;;;;;;;;5034114;28;20222;-77
2021/11/16 10:06:38;;;;;;;71.27;34.83;;;;;;;;;;5029633;28;20253;-77
2021/11/16 10:09:07;;;;;;;70.70;34.10;;;;;;;;;;5031215;28;20203;-77
2021/11/16 10:11:40;;;;;;;65.43;34.37;;;;;;;;;;5031358;28;20208;-77
2021/11/16 10:14:07;;;;;;;65.87;33.57;;;;;;;;;;5030929;28;20231;-77
2021/11/16 10:16:34;;;;;;;65.53;32.70;;;;;;;;;;5032753;28;20246;-77
2021/11/16 10:19:01;;;;;;;66.00;34.83;;;;;;;;;;5029434;28;20833;-77
2021/11/16 10:21:30;;;;;;;69.53;35.13;;;;;;;;;;5031366;28;20227;-77
2021/11/16 10:23:56;;;;;;;69.70;36.03;;;;;;;;;;5031712;28;20305;-78
2021/11/16 10:26:31;;;;;;;65.00;33.80;;;;;;;;;;5031097;28;20258;-77
2021/11/16 10:28:59;;;;;;;70.20;32.40;;;;;;;;;;5029844;28;20284;-77
2021/11/16 10:31:32;;;;;;;64.10;31.53;;;;;;;;;;5031022;28;20265;-77
2021/11/16 10:33:59;;;;;;;69.20;33.07;;;;;;;;;;5030441;28;20234;-77
2021/11/16 10:36:27;;;;;;;66.03;31.90;;;;;;;;;;5029600;28;20222;-77
2021/11/16 10:38:56;;;;;;;66.33;32.33;;;;;;;;;;5029800;28;20218;-77
2021/11/16 10:41:26;;;;;;;68.13;33.50;;;;;;;;;;5030604;28;20287;-77
2021/11/16 10:43:55;;;;;;;69.37;33.20;;;;;;;;;;5030373;28;20226;-79
2021/11/16 10:46:26;;;;;;;64.37;31.50;;;;;;;;;;5030337;28;20227;-77
2021/11/16 10:48:55;;;;;;;74.43;33.37;;;;;;;;;;5030600;28;20206;-77
2021/11/16 10:51:22;;;;;;;68.23;30.87;;;;;;;;;;5028644;28;20238;-77
2021/11/16 10:53:51;;;;;;;66.23;29.63;;;;;;;;;;5030589;28;20217;-77
2021/11/16 10:56:22;;;;;;;69.43;30.90;;;;;;;;;;5029014;28;20313;-77
2021/11/16 10:58:49;;;;;;;65.67;30.03;;;;;;;;;;5032285;28;20661;-77
2021/11/16 11:01:17;;;;;;;67.10;30.13;;;;;;;;;;5030277;28;20330;-77
2021/11/16 11:03:48;;;;;;;63.10;30.70;;;;;;;;;;5028710;28;20207;-77
2021/11/16 11:06:18;;;;;;;65.60;29.37;;;;;;;;;;5028858;28;20230;-77
2021/11/16 11:08:46;;;;;;;58.20;29.30;;;;;;;;;;5031183;28;20740;-77
2021/11/16 11:11:25;;;;;;;56.17;27.83;;;;;;;;;;5029943;28;20233;-77
2021/11/16 11:14:01;;;;;;;57.37;28.57;;;;;;;;;;5029295;28;20389;-77
2021/11/16 11:16:28;;;;;;;67.43;29.90;;;;;;;;;;5030333;28;20215;-78
2021/11/16 11:18:57;;;;;;;63.80;28.33;;;;;;;;;;5031270;28;20582;-78
2021/11/16 11:21:28;;;;;;;64.57;30.13;;;;;;;;;;5028853;28;20223;-77
2021/11/16 11:23:56;;;;;;;61.10;28.37;;;;;;;;;;5031011;28;20338;-77
2021/11/16 11:26:32;;;;;;;67.53;31.73;;;;;;;;;;5032400;28;20251;-80
2021/11/16 11:29:18;;;;;;;61.97;29.00;;;;;;;;;;5032303;28;20226;-80
2021/11/16 11:31:46;;;;;;;62.53;28.53;;;;;;;;;;5032811;28;20298;-80
2021/11/16 11:34:15;;;;;;;63.03;27.73;;;;;;;;;;5030691;28;20206;-77
2021/11/16 11:36:41;;;;;;;60.37;28.17;;;;;;;;;;5031726;28;20245;-77
2021/11/16 11:39:22;;;;;;;54.57;26.63;;;;;;;;;;5028459;28;20567;-77
2021/11/16 11:41:52;;;;;;;55.20;26.33;;;;;;;;;;5029904;28;20211;-77
2021/11/16 11:44:20;;;;;;;58.30;27.67;;;;;;;;;;5032229;28;20229;-77
2021/11/16 11:46:58;;;;;;;60.60;28.40;;;;;;;;;;5031427;28;20223;-77
2021/11/16 11:49:27;;;;;;;63.03;28.40;;;;;;;;;;5030432;28;20564;-77
2021/11/16 11:51:56;;;;;;;62.23;30.03;;;;;;;;;;5031012;28;20247;-77
2021/11/16 11:54:22;;;;;;;63.03;27.63;;;;;;;;;;5030764;28;20775;-78
2021/11/16 11:56:50;;;;;;;57.63;28.20;;;;;;;;;;5030237;28;20221;-77
2021/11/16 11:59:19;;;;;;;65.60;29.87;;;;;;;;;;5031253;28;20293;-77
2021/11/16 12:01:46;;;;;;;65.73;29.83;;;;;;;;;;5030958;28;20219;-78
2021/11/16 12:04:15;;;;;;;57.73;27.67;;;;;;;;;;5029034;28;20219;-77
2021/11/16 12:06:44;;;;;;;55.23;27.07;;;;;;;;;;5034796;28;20231;-78
2021/11/16 12:09:11;;;;;;;58.23;27.10;;;;;;;;;;5035163;28;20333;-77
2021/11/16 12:11:37;;;;;;;56.43;26.80;;;;;;;;;;5035543;28;20238;-78
2021/11/16 12:14:09;;;;;;;51.00;24.23;;;;;;;;;;5035022;28;20958;-78
2021/11/16 12:16:44;;;;;;;59.07;27.53;;;;;;;;;;5034847;28;20211;-78
2021/11/16 12:19:12;;;;;;;58.10;26.50;;;;;;;;;;5035068;28;20215;-78
2021/11/16 12:21:41;;;;;;;55.60;26.30;;;;;;;;;;5038049;28;20578;-79
2021/11/16 12:24:11;;;;;;;59.57;26.13;;;;;;;;;;5036166;28;20214;-78
2021/11/16 12:26:55;;;;;;;56.80;25.57;;;;;;;;;;5035127;28;20219;-78
2021/11/16 12:29:23;;;;;;;51.70;24.63;;;;;;;;;;5033182;28;20227;-79
2021/11/16 12:31:53;;;;;;;48.80;24.30;;;;;;;;;;5037415;28;20215;-78
2021/11/16 12:34:42;;;;;;;48.33;24.30;;;;;;;;;;5034580;28;20496;-78
2021/11/16 12:37:11;;;;;;;57.70;26.13;;;;;;;;;;5029910;28;20254;-78
2021/11/16 12:39:55;;;;;;;55.93;25.90;;;;;;;;;;5035757;28;20394;-79
2021/11/16 12:42:22;;;;;;;49.77;24.20;;;;;;;;;;5036077;28;20213;-79
2021/11/16 12:44:56;;;;;;;53.37;26.07;;;;;;;;;;5035504;28;20226;-79
2021/11/16 12:47:23;;;;;;;54.40;25.90;;;;;;;;;;5034393;28;20235;-77
2021/11/16 12:49:51;;;;;;;56.87;25.70;;;;;;;;;;5033627;28;20284;-77
2021/11/16 12:52:20;;;;;;;55.90;25.20;;;;;;;;;;5033533;28;20693;-77
2021/11/16 12:54:48;;;;;;;58.27;25.60;;;;;;;;;;5033101;28;20211;-77
2021/11/16 12:57:18;;;;;;;66.50;26.50;;;;;;;;;;5035030;28;21116;-78
2021/11/16 12:59:54;;;;;;;57.50;25.57;;;;;;;;;;5031219;28;20226;-77
2021/11/16 13:02:23;;;;;;;55.83;25.50;;;;;;;;;;5032517;28;20211;-77
2021/11/16 13:04:54;;;;;;;57.10;24.73;;;;;;;;;;5033947;28;20268;-77
2021/11/16 13:07:24;;;;;;;50.30;24.37;;;;;;;;;;5035323;28;20234;-77
2021/11/16 13:09:54;;;;;;;62.60;26.20;;;;;;;;;;5032384;28;20229;-77
2021/11/16 13:12:46;;;;;;;63.77;28.07;;;;;;;;;;5034159;28;20207;-77
2021/11/16 13:15:21;;;;;;;55.73;25.20;;;;;;;;;;5020148;28;20641;-77
2021/11/16 13:17:55;;;;;;;55.90;24.07;;;;;;;;;;5033317;28;20521;-77
2021/11/16 13:20:31;;;;;;;63.50;28.03;;;;;;;;;;5035451;28;20547;-79
2021/11/16 13:23:01;;;;;;;61.60;26.87;;;;;;;;;;5034119;28;20222;-79
2021/11/16 13:25:39;;;;;;;58.07;26.83;;;;;;;;;;5032571;28;20214;-78
2021/11/16 13:28:07;;;;;;;60.00;27.00;;;;;;;;;;5032850;28;20567;-78
2021/11/16 13:30:35;;;;;;;61.83;27.87;;;;;;;;;;5033063;28;20588;-78
2021/11/16 13:33:35;;;;;;;59.73;28.37;;;;;;;;;;5034110;28;20204;-78
2021/11/16 13:36:05;;;;;;;63.03;28.63;;;;;;;;;;5034466;28;20234;-78
2021/11/16 13:38:53;;;;;;;56.57;26.90;;;;;;;;;;5033970;28;20261;-78
2021/11/16 13:41:58;;;;;;;61.30;27.47;;;;;;;;;;5033053;28;20215;-79
2021/11/16 13:44:27;;;;;;;67.17;28.60;;;;;;;;;;5019166;28;20234;-79
2021/11/16 13:46:57;;;;;;;65.03;28.93;;;;;;;;;;5034992;28;20263;-79
2021/11/16 13:49:30;;;;;;;64.50;28.33;;;;;;;;;;5033803;28;20871;-79
2021/11/16 13:52:19;;;;;;;72.47;30.07;;;;;;;;;;5034260;28;20230;-78
2021/11/16 13:54:49;;;;;;;61.63;28.13;;;;;;;;;;5031921;28;20264;-77
2021/11/16 13:57:20;;;;;;;69.30;28.43;;;;;;;;;;5033597;28;20615;-78
2021/11/16 13:59:55;;;;;;;63.00;27.93;;;;;;;;;;5032617;28;21024;-78
2021/11/16 14:02:22;;;;;;;62.27;28.10;;;;;;;;;;5033503;28;20294;-78
2021/11/16 14:04:56;;;;;;;59.73;27.60;;;;;;;;;;5032414;28;20669;-78
2021/11/16 14:07:23;;;;;;;65.03;28.73;;;;;;;;;;5031128;28;20246;-78
2021/11/16 14:10:11;;;;;;;61.23;28.13;;;;;;;;;;5031698;28;20669;-78
2021/11/16 14:12:41;;;;;;;64.97;30.60;;;;;;;;;;5033260;28;20217;-78
2021/11/16 14:15:10;;;;;;;75.30;32.47;;;;;;;;;;5032371;28;20804;-78
2021/11/16 14:17:37;;;;;;;65.53;30.73;;;;;;;;;;5033781;28;20238;-78
2021/11/16 14:20:04;;;;;;;60.40;28.10;;;;;;;;;;5031146;28;20282;-78
2021/11/16 14:22:37;;;;;;;57.50;27.00;;;;;;;;;;5031725;28;20218;-78
2021/11/16 14:25:16;;;;;;;55.03;26.47;;;;;;;;;;5030882;28;20250;-78
2021/11/16 14:27:46;;;;;;;64.10;27.20;;;;;;;;;;5032551;28;20348;-78
2021/11/16 14:30:14;;;;;;;64.43;28.97;;;;;;;;;;5033605;28;20226;-77
2021/11/16 14:32:41;;;;;;;65.90;27.60;;;;;;;;;;5033681;28;20214;-78
2021/11/16 14:35:16;;;;;;;66.60;28.17;;;;;;;;;;5031912;28;20261;-78
2021/11/16 14:37:51;;;;;;;61.10;26.57;;;;;;;;;;5030952;28;20227;-77